createdAt,value
2023-05-09T00:00:11.310Z,97.71
2023-05-09T00:02:40.072Z,98.23
2023-05-09T00:05:10.257Z,98.60
2023-05-09T00:07:40.512Z,97.90
2023-05-09T00:10:09.886Z,98.60
2023-05-09T00:12:38.447Z,99.49
2023-05-09T00:15:09.508Z,100.00
2023-05-09T00:17:38.793Z,99.52
2023-05-09T00:20:12.496Z,98.95
2023-05-09T00:22:42.682Z,98.15
2023-05-09T00:25:12.966Z,97.93
2023-05-09T00:27:41.614Z,97.96
2023-05-09T00:30:11.063Z,97.91
2023-05-09T00:32:41.821Z,98.16
2023-05-09T00:35:11.161Z,97.60
2023-05-09T00:37:41.039Z,97.96
2023-05-09T00:40:10.746Z,98.34
2023-05-09T00:42:39.247Z,97.29
2023-05-09T00:45:09.638Z,97.64
2023-05-09T00:47:39.438Z,97.55
2023-05-09T00:50:10.525Z,96.90
2023-05-09T00:52:41.641Z,97.26
2023-05-09T00:55:11.137Z,97.41
2023-05-09T00:57:39.793Z,97.94
2023-05-09T01:00:13.669Z,97.48
2023-05-09T01:02:43.404Z,98.10
2023-05-09T01:05:13.014Z,98.36
2023-05-09T01:07:51.933Z,98.88
2023-05-09T01:10:33.413Z,98.11
2023-05-09T01:13:08.087Z,97.51
2023-05-09T01:15:42.736Z,96.86
2023-05-09T01:18:18.637Z,97.87
2023-05-09T01:20:54.551Z,97.56
2023-05-09T01:24:10.068Z,97.57
2023-05-09T01:26:46.891Z,97.25
2023-05-09T01:29:35.214Z,96.11
2023-05-09T01:32:09.381Z,96.40
2023-05-09T01:34:41.490Z,97.05
2023-05-09T01:37:11.454Z,96.60
2023-05-09T01:39:43.425Z,96.81
2023-05-09T01:42:14.694Z,96.41
2023-05-09T01:44:47.349Z,96.59
2023-05-09T01:47:17.793Z,96.46
2023-05-09T01:49:47.932Z,96.51
2023-05-09T01:52:19.307Z,97.01
2023-05-09T01:54:48.556Z,96.88
2023-05-09T01:57:18.989Z,97.03
2023-05-09T01:59:50.135Z,97.18
2023-05-09T02:02:19.597Z,98.17
2023-05-09T02:04:49.430Z,97.97
2023-05-09T02:07:18.806Z,97.14
2023-05-09T02:09:48.624Z,96.70
2023-05-09T02:12:17.450Z,96.55
2023-05-09T02:14:45.915Z,96.88
2023-05-09T02:17:17.337Z,96.45
2023-05-09T02:19:46.266Z,96.61
2023-05-09T02:22:16.855Z,97.30
2023-05-09T02:24:46.561Z,98.07
2023-05-09T02:27:17.031Z,98.26
2023-05-09T02:29:50.352Z,96.76
2023-05-09T02:32:26.831Z,97.11
2023-05-09T02:34:56.722Z,97.02
2023-05-09T02:37:26.320Z,96.48
2023-05-09T02:39:55.332Z,96.57
2023-05-09T02:42:27.227Z,97.10
2023-05-09T02:44:56.120Z,97.36
2023-05-09T02:47:26.295Z,97.55
2023-05-09T02:49:54.809Z,96.84
2023-05-09T02:52:23.299Z,95.80
2023-05-09T02:54:51.775Z,96.42
2023-05-09T02:57:21.088Z,96.47
2023-05-09T02:59:49.562Z,97.77
2023-05-09T03:02:18.269Z,97.73
2023-05-09T03:04:48.131Z,98.34
2023-05-09T03:07:16.678Z,98.06
2023-05-09T03:09:45.187Z,97.52
2023-05-09T03:12:13.886Z,97.92
2023-05-09T03:14:42.391Z,97.66
2023-05-09T03:17:11.042Z,97.76
2023-05-09T03:19:39.575Z,97.93
2023-05-09T03:22:09.412Z,98.21
2023-05-09T03:24:37.874Z,98.48
2023-05-09T03:27:07.058Z,98.22
2023-05-09T03:29:35.546Z,98.13
2023-05-09T03:32:04.000Z,97.44
2023-05-09T03:34:32.525Z,98.00
2023-05-09T03:37:01.119Z,97.43
2023-05-09T03:39:31.008Z,97.04
2023-05-09T03:41:59.678Z,97.01
2023-05-09T03:44:28.307Z,96.95
2023-05-09T03:46:56.841Z,96.76
2023-05-09T03:49:25.498Z,98.03
2023-05-09T03:51:54.076Z,97.82
2023-05-09T03:54:22.536Z,96.87
2023-05-09T03:56:52.653Z,97.17
2023-05-09T03:59:21.132Z,96.99
2023-05-09T04:01:49.718Z,96.78
2023-05-09T04:04:18.227Z,96.71
2023-05-09T04:06:46.694Z,96.94
2023-05-09T04:09:16.038Z,96.96
2023-05-09T04:11:44.726Z,97.71
2023-05-09T04:14:14.558Z,98.07
2023-05-09T04:16:43.551Z,97.32
2023-05-09T04:19:12.106Z,97.63
2023-05-09T04:21:40.620Z,97.61
2023-05-09T04:24:09.554Z,97.48
2023-05-09T04:26:39.101Z,98.34
2023-05-09T04:29:07.731Z,98.40
2023-05-09T04:31:37.890Z,97.71
2023-05-09T04:34:06.571Z,97.36
2023-05-09T04:36:35.307Z,97.88
2023-05-09T04:39:05.181Z,97.24
2023-05-09T04:41:33.881Z,97.10
2023-05-09T04:44:02.418Z,97.72
2023-05-09T04:46:31.139Z,96.84
2023-05-09T04:49:01.046Z,97.39
2023-05-09T04:51:30.033Z,96.69
2023-05-09T04:53:58.537Z,96.95
2023-05-09T04:56:26.985Z,96.79
2023-05-09T04:58:55.438Z,96.87
2023-05-09T05:01:24.253Z,97.18
2023-05-09T05:03:52.752Z,96.73
2023-05-09T05:06:22.911Z,97.00
2023-05-09T05:08:51.404Z,97.62
2023-05-09T05:11:21.142Z,96.67
2023-05-09T05:13:49.600Z,96.47
2023-05-09T05:16:18.265Z,96.15
2023-05-09T05:18:46.758Z,96.05
2023-05-09T05:21:16.362Z,96.64
2023-05-09T05:23:46.483Z,96.70
2023-05-09T05:26:15.008Z,96.80
2023-05-09T05:28:43.468Z,97.60
2023-05-09T05:31:11.968Z,97.23
2023-05-09T05:33:40.467Z,96.54
2023-05-09T05:36:09.641Z,95.65
2023-05-09T05:38:38.132Z,95.18
2023-05-09T05:41:11.296Z,95.41
2023-05-09T05:43:39.860Z,95.38
2023-05-09T05:46:09.674Z,95.17
2023-05-09T05:48:38.182Z,96.07
2023-05-09T05:51:06.678Z,95.56
2023-05-09T05:53:35.206Z,95.80
2023-05-09T05:56:04.263Z,95.80
2023-05-09T05:58:34.365Z,96.21
2023-05-09T06:01:03.230Z,95.34
2023-05-09T06:03:32.234Z,95.25
2023-05-09T06:06:01.077Z,94.15
2023-05-09T06:08:29.572Z,93.66
2023-05-09T06:10:58.121Z,94.53
2023-05-09T06:13:26.619Z,94.45
2023-05-09T06:16:07.787Z,93.98
2023-05-09T06:18:43.985Z,94.79
2023-05-09T06:21:12.684Z,95.53
2023-05-09T06:23:57.073Z,95.77
2023-05-09T06:26:29.650Z,94.83
2023-05-09T06:28:58.154Z,94.79
2023-05-09T06:31:28.082Z,94.15
2023-05-09T06:33:56.609Z,94.27
2023-05-09T06:36:25.185Z,94.16
2023-05-09T06:38:54.125Z,94.72
2023-05-09T06:41:22.647Z,94.14
2023-05-09T06:43:51.592Z,93.59
2023-05-09T06:46:20.372Z,93.69
2023-05-09T06:48:50.272Z,93.76
2023-05-09T06:51:19.244Z,92.81
2023-05-09T06:53:47.730Z,93.52
2023-05-09T06:56:19.931Z,92.64
2023-05-09T06:58:48.710Z,92.42
2023-05-09T07:01:18.418Z,93.30
2023-05-09T07:03:47.608Z,92.81
2023-05-09T07:06:20.069Z,93.28
2023-05-09T07:08:49.744Z,93.18
2023-05-09T07:11:18.256Z,93.91
2023-05-09T07:13:46.753Z,93.06
2023-05-09T07:16:15.393Z,92.31
2023-05-09T07:18:43.907Z,93.99
2023-05-09T07:21:12.370Z,92.47
2023-05-09T07:23:42.237Z,92.42
2023-05-09T07:26:10.730Z,92.67
2023-05-09T07:28:39.247Z,92.16
2023-05-09T07:31:09.397Z,90.08
2023-05-09T07:33:37.881Z,90.25
2023-05-09T07:36:08.475Z,89.59
2023-05-09T07:38:36.931Z,88.36
2023-05-09T07:41:07.641Z,88.37
2023-05-09T07:43:36.191Z,88.39
2023-05-09T07:46:04.855Z,88.10
2023-05-09T07:48:33.353Z,86.40
2023-05-09T07:51:01.815Z,86.85
2023-05-09T07:56:21.372Z,87.80
2023-05-09T07:58:49.997Z,87.51
2023-05-09T08:01:18.484Z,86.35
2023-05-09T08:03:47.019Z,83.20
2023-05-09T08:06:15.550Z,81.31
2023-05-09T08:08:44.030Z,81.77
2023-05-09T08:11:12.488Z,81.86
2023-05-09T08:13:42.342Z,78.98
2023-05-09T08:16:12.599Z,78.77
2023-05-09T08:18:41.060Z,80.68
2023-05-09T08:21:10.027Z,80.36
2023-05-09T08:23:38.511Z,80.00
2023-05-09T08:26:07.130Z,81.32
2023-05-09T08:28:35.644Z,82.13
2023-05-09T08:31:05.498Z,81.09
2023-05-09T08:33:33.973Z,82.06
2023-05-09T08:36:03.153Z,80.11
2023-05-09T08:38:31.599Z,81.71
2023-05-09T08:41:04.044Z,80.17
2023-05-09T08:43:35.056Z,80.24
2023-05-09T08:46:09.057Z,80.63
2023-05-09T08:48:38.733Z,79.82
2023-05-09T08:51:10.514Z,79.01
2023-05-09T08:53:39.790Z,80.34
2023-05-09T08:56:09.107Z,80.75
2023-05-09T08:58:37.866Z,78.73
2023-05-09T09:01:08.683Z,79.14
2023-05-09T09:03:39.327Z,77.13
2023-05-09T09:06:11.109Z,77.82
2023-05-09T09:08:39.993Z,79.11
2023-05-09T09:11:08.859Z,75.72
2023-05-09T09:13:40.587Z,78.18
2023-05-09T09:16:20.185Z,78.14
2023-05-09T09:18:49.201Z,78.09
2023-05-09T09:21:21.367Z,79.18
2023-05-09T09:23:51.335Z,79.56
2023-05-09T09:26:20.379Z,78.15
2023-05-09T09:28:50.413Z,79.84
2023-05-09T09:31:25.160Z,79.80
2023-05-09T09:33:53.687Z,80.15
2023-05-09T09:36:29.432Z,78.63
2023-05-09T09:39:01.493Z,79.91
2023-05-09T09:41:35.225Z,78.64
2023-05-09T09:44:09.399Z,78.66
2023-05-09T09:46:45.600Z,77.75
2023-05-09T09:49:15.921Z,78.49
2023-05-09T09:51:44.863Z,77.75
2023-05-09T09:54:15.958Z,78.40
2023-05-09T09:56:46.113Z,76.87
2023-05-09T09:59:17.004Z,75.49
2023-05-09T10:02:03.416Z,73.74
2023-05-09T10:04:35.264Z,76.33
2023-05-09T10:07:06.461Z,76.88
2023-05-09T10:09:37.985Z,76.98
2023-05-09T10:12:08.957Z,76.99
2023-05-09T10:14:39.778Z,77.14
2023-05-09T10:17:12.927Z,74.88
2023-05-09T10:19:47.645Z,74.52
2023-05-09T10:22:18.502Z,73.56
2023-05-09T10:24:52.388Z,73.11
2023-05-09T10:27:24.610Z,73.64
2023-05-09T10:30:02.532Z,74.34
2023-05-09T10:32:40.541Z,74.26
2023-05-09T10:35:13.911Z,73.55
2023-05-09T10:37:43.825Z,73.33
2023-05-09T10:40:15.175Z,73.34
2023-05-09T10:42:44.780Z,74.85
2023-05-09T10:45:14.774Z,74.70
2023-05-09T10:47:46.804Z,73.89
2023-05-09T10:50:15.775Z,73.35
2023-05-09T10:53:07.290Z,72.15
2023-05-09T10:55:40.970Z,72.14
2023-05-09T10:58:22.061Z,70.64
2023-05-09T11:00:52.301Z,71.71
2023-05-09T11:03:22.719Z,70.08
2023-05-09T11:05:53.224Z,71.38
2023-05-09T11:08:24.880Z,71.85
2023-05-09T11:10:54.234Z,72.23
2023-05-09T11:13:25.108Z,70.31
2023-05-09T11:16:20.679Z,70.35
2023-05-09T11:18:54.934Z,71.74
2023-05-09T11:21:23.498Z,72.82
2023-05-09T11:23:55.016Z,72.18
2023-05-09T11:26:30.647Z,73.17
2023-05-09T11:29:02.795Z,72.55
2023-05-09T11:31:31.300Z,71.24
2023-05-09T11:34:04.997Z,72.33
2023-05-09T11:36:34.078Z,70.44
2023-05-09T11:39:07.971Z,70.71
2023-05-09T11:41:44.984Z,69.48
2023-05-09T11:44:18.427Z,69.03
2023-05-09T11:46:47.640Z,68.87
2023-05-09T11:49:19.554Z,69.72
2023-05-09T11:51:48.327Z,71.21
2023-05-09T11:54:16.793Z,69.66
2023-05-09T11:56:46.361Z,69.83
2023-05-09T11:59:15.919Z,68.74
2023-05-09T12:01:44.460Z,69.71
2023-05-09T12:04:13.074Z,70.27
2023-05-09T12:06:49.349Z,67.27
2023-05-09T12:09:20.274Z,69.45
2023-05-09T12:11:51.569Z,67.32
2023-05-09T12:14:31.224Z,66.36
2023-05-09T12:17:00.230Z,68.15
2023-05-09T12:19:29.784Z,65.23
2023-05-09T12:22:01.004Z,66.74
2023-05-09T12:24:31.418Z,65.99
2023-05-09T12:27:01.466Z,65.89
2023-05-09T12:29:30.789Z,65.38
2023-05-09T12:32:00.832Z,66.06
2023-05-09T12:34:29.669Z,67.83
2023-05-09T12:37:00.607Z,68.31
2023-05-09T12:39:29.054Z,69.36
2023-05-09T12:42:01.499Z,67.08
2023-05-09T12:44:30.807Z,67.01
2023-05-09T12:47:01.654Z,65.51
2023-05-09T12:49:31.675Z,66.70
2023-05-09T12:52:04.759Z,65.54
2023-05-09T12:54:33.562Z,66.61
2023-05-09T12:57:04.424Z,68.17
2023-05-09T12:59:33.379Z,65.81
2023-05-09T13:02:02.597Z,68.05
2023-05-09T13:04:31.506Z,67.17
2023-05-09T13:07:01.524Z,64.31
2023-05-09T13:09:29.953Z,65.79
2023-05-09T13:11:58.389Z,65.59
2023-05-09T13:14:27.622Z,66.76
2023-05-09T13:16:56.165Z,67.68
2023-05-09T13:19:24.856Z,66.50
2023-05-09T13:21:55.341Z,64.56
2023-05-09T13:24:25.170Z,64.66
2023-05-09T13:26:53.655Z,66.34
2023-05-09T13:29:22.144Z,66.10
2023-05-09T13:31:50.612Z,65.45
2023-05-09T13:34:19.285Z,64.18
2023-05-09T13:36:47.768Z,65.53
2023-05-09T13:39:16.700Z,64.81
2023-05-09T13:41:46.571Z,62.29
2023-05-09T13:44:15.001Z,62.86
2023-05-09T13:46:43.935Z,64.31
2023-05-09T13:49:12.476Z,64.94
2023-05-09T13:51:41.104Z,66.42
2023-05-09T13:54:12.751Z,65.94
2023-05-09T13:56:41.746Z,64.89
2023-05-09T13:59:12.473Z,66.33
2023-05-09T14:01:41.010Z,64.30
2023-05-09T14:04:09.673Z,65.92
2023-05-09T14:06:38.506Z,65.30
2023-05-09T14:09:07.244Z,64.32
2023-05-09T14:11:35.935Z,66.72
2023-05-09T14:14:04.365Z,65.14
2023-05-09T14:16:34.421Z,65.36
2023-05-09T14:19:02.890Z,67.81
2023-05-09T14:21:31.619Z,68.32
2023-05-09T14:24:00.290Z,70.83
2023-05-09T14:26:28.972Z,73.83
2023-05-09T14:28:57.468Z,68.23
2023-05-09T14:31:25.979Z,72.14
2023-05-09T14:33:55.829Z,74.04
2023-05-09T14:36:24.618Z,71.46
2023-05-09T14:38:53.027Z,71.49
2023-05-09T14:41:22.260Z,71.56
2023-05-09T14:43:50.703Z,72.52
2023-05-09T14:46:19.390Z,74.52
2023-05-09T14:48:47.888Z,73.34
2023-05-09T14:51:17.692Z,72.38
2023-05-09T14:53:46.389Z,69.46
2023-05-09T14:56:15.318Z,69.39
2023-05-09T14:58:43.733Z,71.26
2023-05-09T15:01:13.345Z,73.24
2023-05-09T15:03:41.962Z,73.04
2023-05-09T15:06:10.716Z,73.73
2023-05-09T15:08:41.326Z,74.78
2023-05-09T15:11:09.885Z,77.62
2023-05-09T15:13:38.439Z,76.96
2023-05-09T15:16:07.463Z,78.52
2023-05-09T15:18:36.223Z,79.83
2023-05-09T15:21:05.399Z,80.79
2023-05-09T15:23:34.104Z,83.71
2023-05-09T15:26:04.231Z,83.86
2023-05-09T15:28:32.676Z,85.76
2023-05-09T15:31:01.190Z,84.51
2023-05-09T15:33:29.828Z,84.23
2023-05-09T15:35:59.967Z,84.82
2023-05-09T15:38:28.632Z,85.73
2023-05-09T15:40:57.446Z,83.05
2023-05-09T15:43:27.307Z,85.25
2023-05-09T15:45:55.783Z,86.06
2023-05-09T15:48:24.887Z,86.37
2023-05-09T15:50:54.925Z,85.98
2023-05-09T15:53:23.870Z,84.24
2023-05-09T15:55:53.105Z,84.89
2023-05-09T15:58:21.839Z,85.89
2023-05-09T16:00:51.971Z,84.82
2023-05-09T16:03:20.802Z,86.10
2023-05-09T16:05:49.545Z,85.10
2023-05-09T16:08:18.163Z,85.96
2023-05-09T16:10:49.121Z,83.71
2023-05-09T16:13:18.144Z,82.37
2023-05-09T16:15:48.020Z,85.24
2023-05-09T16:18:18.009Z,87.83
2023-05-09T16:20:46.921Z,89.49
2023-05-09T16:23:15.389Z,85.24
2023-05-09T16:25:44.965Z,85.75
2023-05-09T16:28:13.598Z,88.26
2023-05-09T16:30:42.201Z,89.87
2023-05-09T16:33:10.623Z,89.35
2023-05-09T16:35:40.431Z,89.10
2023-05-09T16:38:09.195Z,89.28
2023-05-09T16:40:37.740Z,87.45
2023-05-09T16:43:07.437Z,88.52
2023-05-09T16:45:36.125Z,87.52
2023-05-09T16:48:04.782Z,88.88
2023-05-09T16:50:33.775Z,86.80
2023-05-09T16:53:04.769Z,89.77
2023-05-09T16:55:33.212Z,87.02
2023-05-09T16:58:01.664Z,86.77
2023-05-09T17:00:30.633Z,87.26
2023-05-09T17:02:59.218Z,87.97
2023-05-09T17:05:27.913Z,86.93
2023-05-09T17:07:56.395Z,85.53
2023-05-09T17:10:26.305Z,87.89
2023-05-09T17:12:55.287Z,89.30
2023-05-09T17:15:24.043Z,86.70
2023-05-09T17:17:52.506Z,86.47
2023-05-09T17:20:20.951Z,87.73
2023-05-09T17:22:49.393Z,87.79
2023-05-09T17:25:18.365Z,88.28
2023-05-09T17:27:49.399Z,87.34
2023-05-09T17:30:19.402Z,90.63
2023-05-09T17:32:50.129Z,89.94
2023-05-09T17:35:20.060Z,88.91
2023-05-09T17:37:48.488Z,88.48
2023-05-09T17:40:17.261Z,91.56
2023-05-09T17:42:47.290Z,92.33
2023-05-09T17:45:15.757Z,93.06
2023-05-09T17:47:44.672Z,91.98
2023-05-09T17:50:17.295Z,92.03
2023-05-09T17:52:45.996Z,92.22
2023-05-09T17:55:14.613Z,92.60
2023-05-09T17:57:43.383Z,93.17
2023-05-09T18:00:15.424Z,94.06
2023-05-09T18:02:44.233Z,94.64
2023-05-09T18:05:12.706Z,93.97
2023-05-09T18:07:41.355Z,92.79
2023-05-09T18:10:11.362Z,92.33
2023-05-09T18:12:39.853Z,92.41
2023-05-09T18:15:10.479Z,93.26
2023-05-09T18:17:40.569Z,94.84
2023-05-09T18:20:10.391Z,94.80
2023-05-09T18:22:38.813Z,94.28
2023-05-09T18:25:08.400Z,94.58
2023-05-09T18:27:36.882Z,94.86
2023-05-09T18:30:06.849Z,93.66
2023-05-09T18:32:35.429Z,94.10
2023-05-09T18:35:06.475Z,94.68
2023-05-09T18:37:35.729Z,94.15
2023-05-09T18:40:05.305Z,92.76
2023-05-09T18:42:33.756Z,93.98
2023-05-09T18:45:04.430Z,95.23
2023-05-09T18:47:32.986Z,93.84
2023-05-09T18:50:02.816Z,93.10
2023-05-09T18:52:33.072Z,93.68
2023-05-09T18:55:01.798Z,94.60
2023-05-09T18:57:30.269Z,94.99
2023-05-09T18:59:58.946Z,95.02
2023-05-09T19:02:27.722Z,94.58
2023-05-09T19:04:56.238Z,93.23
2023-05-09T19:07:24.991Z,92.82
2023-05-09T19:09:54.799Z,91.54
2023-05-09T19:12:23.835Z,93.20
2023-05-09T19:14:52.299Z,92.08
2023-05-09T19:17:21.032Z,91.93
2023-05-09T19:19:49.495Z,91.81
2023-05-09T19:22:18.145Z,91.18
2023-05-09T19:24:46.644Z,92.79
2023-05-09T19:27:16.777Z,92.57
2023-05-09T19:29:45.200Z,92.94
2023-05-09T19:32:13.876Z,91.20
2023-05-09T19:34:42.444Z,90.91
2023-05-09T19:37:11.140Z,91.12
2023-05-09T19:39:39.551Z,90.97
2023-05-09T19:42:08.372Z,91.87
2023-05-09T19:44:39.003Z,91.61
2023-05-09T19:47:09.037Z,93.04
2023-05-09T19:49:37.500Z,91.65
2023-05-09T19:52:06.564Z,90.54
2023-05-09T19:54:35.007Z,91.33
2023-05-09T19:57:06.436Z,90.14
2023-05-09T19:59:35.022Z,90.38
2023-05-09T20:02:05.099Z,89.03
2023-05-09T20:04:37.314Z,91.60
2023-05-09T20:07:06.395Z,90.72
2023-05-09T20:09:34.838Z,91.29
2023-05-09T20:12:03.897Z,91.64
2023-05-09T20:14:32.462Z,91.67
2023-05-09T20:17:00.887Z,90.33
2023-05-09T20:19:31.115Z,89.54
2023-05-09T20:21:59.564Z,89.57
2023-05-09T20:24:28.394Z,90.21
2023-05-09T20:26:56.869Z,89.89
2023-05-09T20:29:26.731Z,88.94
2023-05-09T20:31:55.216Z,88.19
2023-05-09T20:34:24.721Z,90.17
2023-05-09T20:36:55.161Z,91.82
2023-05-09T20:39:24.760Z,91.54
2023-05-09T20:41:54.593Z,91.02
2023-05-09T20:44:23.489Z,91.37
2023-05-09T20:46:52.801Z,91.84
2023-05-09T20:49:21.325Z,91.82
2023-05-09T20:51:49.831Z,94.30
2023-05-09T20:54:20.708Z,93.02
2023-05-09T20:56:49.224Z,92.75
2023-05-09T20:59:17.668Z,91.83
2023-05-09T21:01:46.123Z,93.93
2023-05-09T21:04:15.831Z,93.46
2023-05-09T21:06:44.304Z,95.03
2023-05-09T21:09:12.857Z,93.99
2023-05-09T21:11:42.938Z,92.41
2023-05-09T21:14:11.365Z,94.00
2023-05-09T21:16:40.217Z,94.68
2023-05-09T21:19:08.888Z,92.87
2023-05-09T21:21:37.701Z,91.61
2023-05-09T21:24:09.124Z,93.89
2023-05-09T21:26:37.997Z,93.16
2023-05-09T21:29:07.835Z,92.57
2023-05-09T21:31:36.942Z,93.97
2023-05-09T21:34:09.891Z,93.11
2023-05-09T21:36:39.435Z,91.82
2023-05-09T21:39:09.541Z,91.72
2023-05-09T21:41:40.319Z,93.20
2023-05-09T21:44:11.287Z,91.92
2023-05-09T21:46:40.318Z,91.91
2023-05-09T21:49:08.811Z,90.78
2023-05-09T21:51:37.271Z,92.48
2023-05-09T21:54:06.347Z,91.41
2023-05-09T21:56:34.844Z,92.31
2023-05-09T21:59:03.310Z,92.48
2023-05-09T22:01:33.180Z,92.86
2023-05-09T22:04:02.264Z,93.37
2023-05-09T22:06:31.357Z,92.95
2023-05-09T22:08:59.880Z,93.08
2023-05-09T22:11:28.378Z,93.64
2023-05-09T22:13:56.821Z,92.13
2023-05-09T22:16:25.306Z,91.66
2023-05-09T22:18:55.929Z,92.63
2023-05-09T22:21:24.399Z,93.90
2023-05-09T22:23:52.851Z,94.17
2023-05-09T22:26:21.471Z,92.75
2023-05-09T22:28:50.669Z,92.23
2023-05-09T22:31:19.160Z,93.34
2023-05-09T22:33:47.653Z,93.25
2023-05-09T22:36:18.536Z,93.18
2023-05-09T22:38:46.988Z,94.26
2023-05-09T22:41:16.016Z,93.01
2023-05-09T22:43:45.069Z,94.24
2023-05-09T22:46:13.561Z,94.51
2023-05-09T22:48:42.058Z,94.15
2023-05-09T22:51:10.527Z,93.44
2023-05-09T22:53:40.392Z,93.71
2023-05-09T22:56:09.456Z,93.06
2023-05-09T22:58:37.953Z,92.75
2023-05-09T23:01:06.453Z,92.59
2023-05-09T23:03:35.075Z,92.39
2023-05-09T23:06:03.733Z,92.63
2023-05-09T23:08:32.255Z,92.69
2023-05-09T23:11:02.543Z,91.85
2023-05-09T23:13:31.025Z,92.53
2023-05-09T23:15:59.540Z,92.34
2023-05-09T23:18:28.675Z,92.48
2023-05-09T23:20:57.149Z,92.02
2023-05-09T23:23:25.628Z,92.09
2023-05-09T23:25:54.099Z,92.39
2023-05-09T23:28:25.300Z,91.50
2023-05-09T23:30:55.994Z,91.65
2023-05-09T23:33:24.452Z,91.38
2023-05-09T23:35:52.909Z,91.01
2023-05-09T23:38:22.581Z,91.14
2023-05-09T23:40:51.037Z,91.92
2023-05-09T23:43:19.481Z,91.41
2023-05-09T23:45:49.292Z,91.68
2023-05-09T23:48:17.857Z,91.80
2023-05-09T23:50:46.361Z,93.07
2023-05-09T23:53:14.879Z,91.79
2023-05-09T23:55:43.419Z,92.48
2023-05-09T23:58:11.893Z,92.92
